Clintonville, WI

11:37 PM CST on March 03, 2015 (GMT -0600)
Clintonville Municipal | Change Station
CLOSE
Current Station
Airport
Location: Clintonville,
Elevation: 823 ft
Nearby Weather Stations

Elev 823 ft 44.62 °N, 88.73 °W | Updated 22 minutes ago

Mostly Cloudy
Mostly Cloudy
25 °F
Feels Like 12 °F
N
15
Wind Variable Wind from WNW

Today
High -- | Low -- °F
--% Chance of Precip.
Yesterday
High -- | Low -- °F
Precip. -- in
6:29 AM 5:45 PM
Waxing Gibbous, 98% visible
Pressure 29.78 in
Visibility 10.0 miles
Clouds Mostly Cloudy 3100 ft
Windchill 12 °F
Dew Point 12 °F
Humidity 59%
Rainfall 0.00 in
Snow Depth Not available.
UV 0 out of 12
Pollen .40 out of 12
Air Quality Not available.
Flu Activity Not available.
METAR KCLI 040515Z AUTO 30013KT 10SM BKN031 M04/M11 A2978 RMK AO2

More Conditions Fewer Conditions

Pressure 29.78 in
Visibility 10.0 miles
Clouds Mostly Cloudy 3100 ft
Windchill 12 °F
Dew Point 12 °F
Humidity 59%
Rainfall 0.00 in
Snow Depth Not available.
UV 0 out of 12
Pollen .40 out of 12
Air Quality Not available.
Flu Activity Not available.
METAR KCLI 040515Z AUTO 30013KT 10SM BKN031 M04/M11 A2978 RMK AO2

More Conditions Fewer Conditions

10-Day Weather Forecast

Almanac

Astronomy

Mar. 03, 2015 Rise Set
Actual Time
Civil Twilight
Nautical Twilight
Astronomical Twilight
Moon
Length of Visible Light
Length of Day
Tomorrow will be .
, % of the Moon is Illuminated

Today's Extremes

State Highs State Lows

Community

WunderPhotos

Upload Photos

1,802,400 photos uploaded!

WunderBlogs® & News

Nearby

Air Quality

  Air Quality AQ Index Pollutant
Not available.

Snow Depth

Station Depth Elevation

Earthquake Activity

City Distance Mag. Time & Date
Minimum magnitude displayed is 2.5.

Coastal Water Temperatures

Place Temperature

Nearby Weather Stations